Terminal Aerodrome Forecast
Issued by NWS

Home | Current Version | Previous Version | Graphics & Text | Print | Product List | Glossary On
Versions: 1 2 3 4 5 6 7 8 9 10 11 12 13 14 15 16 17 18 19 20 21 22 23 24 25 26 27
000
FTUS41 KCLE 011100
TAFFDY
TAF
KFDY 011123Z 0112/0212 VRB03KT 1 1/2SM -SN OVC025
     FM011500 VRB03KT 1SM -SN OVC007
     FM012200 26008KT P6SM OVC025
     FM020400 25006KT P6SM OVC035
     FM021100 27009KT P6SM SCT250=

USA.gov is the U.S. government's official web portal to all federal, state and local government web resources and services.